sensor_id;sensor_type;location;lat;lon;timestamp;temperature;humidity
15386;DHT22;7791;47.246;9.648;2022-10-31T00:00:51;8.00;99.90
15386;DHT22;7791;47.246;9.648;2022-10-31T00:03:17;7.80;99.90
15386;DHT22;7791;47.246;9.648;2022-10-31T00:05:44;7.80;99.90
15386;DHT22;7791;47.246;9.648;2022-10-31T00:08:12;7.80;99.90
15386;DHT22;7791;47.246;9.648;2022-10-31T00:10:38;7.80;99.90
15386;DHT22;7791;47.246;9.648;2022-10-31T00:13:04;7.80;99.90
15386;DHT22;7791;47.246;9.648;2022-10-31T00:15:32;7.80;99.90
15386;DHT22;7791;47.246;9.648;2022-10-31T00:17:58;7.80;99.90
15386;DHT22;7791;47.246;9.648;2022-10-31T00:20:24;7.80;99.90
15386;DHT22;7791;47.246;9.648;2022-10-31T00:22:50;7.90;99.90
15386;DHT22;7791;47.246;9.648;2022-10-31T00:25:17;7.90;99.90
15386;DHT22;7791;47.246;9.648;2022-10-31T00:27:43;7.80;99.90
15386;DHT22;7791;47.246;9.648;2022-10-31T00:30:10;7.80;99.90
15386;DHT22;7791;47.246;9.648;2022-10-31T00:32:35;7.80;99.90
15386;DHT22;7791;47.246;9.648;2022-10-31T00:35:01;7.70;99.90
15386;DHT22;7791;47.246;9.648;2022-10-31T00:37:27;7.70;99.90
15386;DHT22;7791;47.246;9.648;2022-10-31T00:39:53;7.70;99.90
15386;DHT22;7791;47.246;9.648;2022-10-31T00:42:20;7.70;99.90
15386;DHT22;7791;47.246;9.648;2022-10-31T00:44:45;7.70;99.90
15386;DHT22;7791;47.246;9.648;2022-10-31T00:47:11;7.70;99.90
15386;DHT22;7791;47.246;9.648;2022-10-31T00:49:37;7.70;99.90
15386;DHT22;7791;47.246;9.648;2022-10-31T00:52:03;7.70;99.90
15386;DHT22;7791;47.246;9.648;2022-10-31T00:54:28;7.60;99.90
15386;DHT22;7791;47.246;9.648;2022-10-31T00:56:54;7.60;99.90
15386;DHT22;7791;47.246;9.648;2022-10-31T00:59:21;7.50;99.90
15386;DHT22;7791;47.246;9.648;2022-10-31T01:01:47;7.40;99.90
15386;DHT22;7791;47.246;9.648;2022-10-31T01:04:13;7.30;99.90
15386;DHT22;7791;47.246;9.648;2022-10-31T01:06:39;7.20;99.90
15386;DHT22;7791;47.246;9.648;2022-10-31T01:09:05;7.30;99.90
15386;DHT22;7791;47.246;9.648;2022-10-31T01:11:31;7.40;99.90
15386;DHT22;7791;47.246;9.648;2022-10-31T01:13:57;7.30;99.90
15386;DHT22;7791;47.246;9.648;2022-10-31T01:16:26;7.30;99.90
15386;DHT22;7791;47.246;9.648;2022-10-31T01:18:52;7.30;99.90
15386;DHT22;7791;47.246;9.648;2022-10-31T01:21:20;7.20;99.90
15386;DHT22;7791;47.246;9.648;2022-10-31T01:23:46;7.20;99.90
15386;DHT22;7791;47.246;9.648;2022-10-31T01:26:14;7.30;99.90
15386;DHT22;7791;47.246;9.648;2022-10-31T01:28:44;7.30;99.90
15386;DHT22;7791;47.246;9.648;2022-10-31T01:31:10;7.30;99.90
15386;DHT22;7791;47.246;9.648;2022-10-31T01:33:38;7.30;99.90
15386;DHT22;7791;47.246;9.648;2022-10-31T01:36:12;7.30;99.90
15386;DHT22;7791;47.246;9.648;2022-10-31T01:38:39;7.20;99.90
15386;DHT22;7791;47.246;9.648;2022-10-31T01:41:05;7.20;99.90
15386;DHT22;7791;47.246;9.648;2022-10-31T01:43:45;7.30;99.90
15386;DHT22;7791;47.246;9.648;2022-10-31T01:46:12;7.30;99.90
15386;DHT22;7791;47.246;9.648;2022-10-31T01:48:41;7.40;99.90
15386;DHT22;7791;47.246;9.648;2022-10-31T01:51:07;7.40;99.90
15386;DHT22;7791;47.246;9.648;2022-10-31T01:53:33;7.40;99.90
15386;DHT22;7791;47.246;9.648;2022-10-31T01:56:00;7.30;99.90
15386;DHT22;7791;47.246;9.648;2022-10-31T01:58:28;7.20;99.90
15386;DHT22;7791;47.246;9.648;2022-10-31T02:00:58;7.20;99.90
15386;DHT22;7791;47.246;9.648;2022-10-31T02:03:25;6.90;99.90
15386;DHT22;7791;47.246;9.648;2022-10-31T02:05:53;6.80;99.90
15386;DHT22;7791;47.246;9.648;2022-10-31T02:08:23;6.90;99.90
15386;DHT22;7791;47.246;9.648;2022-10-31T02:10:51;6.90;99.90
15386;DHT22;7791;47.246;9.648;2022-10-31T02:13:17;7.00;99.90
15386;DHT22;7791;47.246;9.648;2022-10-31T02:15:45;7.10;99.90
15386;DHT22;7791;47.246;9.648;2022-10-31T02:18:12;7.20;99.90
15386;DHT22;7791;47.246;9.648;2022-10-31T02:20:45;7.30;99.90
15386;DHT22;7791;47.246;9.648;2022-10-31T02:26:38;7.00;99.90
15386;DHT22;7791;47.246;9.648;2022-10-31T02:29:24;7.00;99.90
15386;DHT22;7791;47.246;9.648;2022-10-31T02:31:59;7.10;99.90
15386;DHT22;7791;47.246;9.648;2022-10-31T02:34:31;7.00;99.90
15386;DHT22;7791;47.246;9.648;2022-10-31T02:37:08;7.00;99.90
15386;DHT22;7791;47.246;9.648;2022-10-31T02:39:38;7.00;99.90
15386;DHT22;7791;47.246;9.648;2022-10-31T02:42:09;6.90;99.90
15386;DHT22;7791;47.246;9.648;2022-10-31T02:44:38;6.90;99.90
15386;DHT22;7791;47.246;9.648;2022-10-31T02:47:12;6.90;99.90
15386;DHT22;7791;47.246;9.648;2022-10-31T02:49:44;6.90;99.90
15386;DHT22;7791;47.246;9.648;2022-10-31T02:52:17;7.00;99.90
15386;DHT22;7791;47.246;9.648;2022-10-31T02:54:45;7.00;99.90
15386;DHT22;7791;47.246;9.648;2022-10-31T02:57:12;7.00;99.90
15386;DHT22;7791;47.246;9.648;2022-10-31T02:59:41;7.00;99.90
15386;DHT22;7791;47.246;9.648;2022-10-31T03:02:34;7.00;99.90
15386;DHT22;7791;47.246;9.648;2022-10-31T03:05:09;7.00;99.90
15386;DHT22;7791;47.246;9.648;2022-10-31T03:07:42;7.00;99.90
15386;DHT22;7791;47.246;9.648;2022-10-31T03:10:16;7.00;99.90
15386;DHT22;7791;47.246;9.648;2022-10-31T03:12:49;7.00;99.90
15386;DHT22;7791;47.246;9.648;2022-10-31T03:15:21;6.90;99.90
15386;DHT22;7791;47.246;9.648;2022-10-31T03:17:55;6.80;99.90
15386;DHT22;7791;47.246;9.648;2022-10-31T03:20:26;6.80;99.90
15386;DHT22;7791;47.246;9.648;2022-10-31T03:22:55;6.80;99.90
15386;DHT22;7791;47.246;9.648;2022-10-31T03:25:22;6.90;99.90
15386;DHT22;7791;47.246;9.648;2022-10-31T03:27:49;6.80;99.90
15386;DHT22;7791;47.246;9.648;2022-10-31T03:30:16;6.70;99.90
15386;DHT22;7791;47.246;9.648;2022-10-31T03:32:44;6.70;99.90
15386;DHT22;7791;47.246;9.648;2022-10-31T03:35:15;6.60;99.90
15386;DHT22;7791;47.246;9.648;2022-10-31T03:37:42;6.50;99.90
15386;DHT22;7791;47.246;9.648;2022-10-31T03:40:09;6.40;99.90
15386;DHT22;7791;47.246;9.648;2022-10-31T03:42:39;6.30;99.90
15386;DHT22;7791;47.246;9.648;2022-10-31T03:45:08;6.10;99.90
15386;DHT22;7791;47.246;9.648;2022-10-31T03:47:37;6.20;99.90
15386;DHT22;7791;47.246;9.648;2022-10-31T03:50:04;6.20;99.90
15386;DHT22;7791;47.246;9.648;2022-10-31T03:52:36;6.30;99.90
15386;DHT22;7791;47.246;9.648;2022-10-31T03:55:07;6.30;99.90
15386;DHT22;7791;47.246;9.648;2022-10-31T03:57:37;6.30;99.90
15386;DHT22;7791;47.246;9.648;2022-10-31T04:00:07;6.30;99.90
15386;DHT22;7791;47.246;9.648;2022-10-31T04:02:37;6.30;99.90
15386;DHT22;7791;47.246;9.648;2022-10-31T04:05:04;6.40;99.90
15386;DHT22;7791;47.246;9.648;2022-10-31T04:07:36;6.40;99.90
15386;DHT22;7791;47.246;9.648;2022-10-31T04:10:06;6.40;99.90
15386;DHT22;7791;47.246;9.648;2022-10-31T04:12:34;6.40;99.90
15386;DHT22;7791;47.246;9.648;2022-10-31T04:15:02;6.30;99.90
15386;DHT22;7791;47.246;9.648;2022-10-31T04:17:31;6.10;99.90
15386;DHT22;7791;47.246;9.648;2022-10-31T04:19:59;6.10;99.90
15386;DHT22;7791;47.246;9.648;2022-10-31T04:22:24;6.00;99.90
15386;DHT22;7791;47.246;9.648;2022-10-31T04:24:51;6.10;99.90
15386;DHT22;7791;47.246;9.648;2022-10-31T04:27:18;6.10;99.90
15386;DHT22;7791;47.246;9.648;2022-10-31T04:29:43;6.10;99.90
15386;DHT22;7791;47.246;9.648;2022-10-31T04:32:09;6.00;99.90
15386;DHT22;7791;47.246;9.648;2022-10-31T04:34:35;6.00;99.90
15386;DHT22;7791;47.246;9.648;2022-10-31T04:37:02;5.90;99.90
15386;DHT22;7791;47.246;9.648;2022-10-31T04:39:27;6.10;99.90
15386;DHT22;7791;47.246;9.648;2022-10-31T04:41:55;6.10;99.90
15386;DHT22;7791;47.246;9.648;2022-10-31T04:44:20;6.20;99.90
15386;DHT22;7791;47.246;9.648;2022-10-31T04:46:46;6.20;99.90
15386;DHT22;7791;47.246;9.648;2022-10-31T04:49:12;6.20;99.90
15386;DHT22;7791;47.246;9.648;2022-10-31T04:51:38;6.20;99.90
15386;DHT22;7791;47.246;9.648;2022-10-31T04:54:04;6.20;99.90
15386;DHT22;7791;47.246;9.648;2022-10-31T04:56:30;6.10;99.90
15386;DHT22;7791;47.246;9.648;2022-10-31T04:58:57;6.10;99.90
15386;DHT22;7791;47.246;9.648;2022-10-31T05:01:23;6.10;99.90
15386;DHT22;7791;47.246;9.648;2022-10-31T05:03:48;5.90;99.90
15386;DHT22;7791;47.246;9.648;2022-10-31T05:06:14;5.80;99.90
15386;DHT22;7791;47.246;9.648;2022-10-31T05:08:41;5.80;99.90
15386;DHT22;7791;47.246;9.648;2022-10-31T05:11:07;5.90;99.90
15386;DHT22;7791;47.246;9.648;2022-10-31T05:13:32;5.80;99.90
15386;DHT22;7791;47.246;9.648;2022-10-31T05:16:00;5.90;99.90
15386;DHT22;7791;47.246;9.648;2022-10-31T05:18:26;5.90;99.90
15386;DHT22;7791;47.246;9.648;2022-10-31T05:20:52;5.90;99.90
15386;DHT22;7791;47.246;9.648;2022-10-31T05:23:18;5.80;99.90
15386;DHT22;7791;47.246;9.648;2022-10-31T05:25:44;5.80;99.90
15386;DHT22;7791;47.246;9.648;2022-10-31T05:28:11;5.80;99.90
15386;DHT22;7791;47.246;9.648;2022-10-31T05:30:37;5.80;99.90
15386;DHT22;7791;47.246;9.648;2022-10-31T05:33:05;5.80;99.90
15386;DHT22;7791;47.246;9.648;2022-10-31T05:35:32;5.80;99.90
15386;DHT22;7791;47.246;9.648;2022-10-31T05:37:59;5.80;99.90
15386;DHT22;7791;47.246;9.648;2022-10-31T05:40:25;5.80;99.90
15386;DHT22;7791;47.246;9.648;2022-10-31T05:42:52;5.80;99.90
15386;DHT22;7791;47.246;9.648;2022-10-31T05:45:19;5.90;99.90
15386;DHT22;7791;47.246;9.648;2022-10-31T05:47:50;5.80;99.90
15386;DHT22;7791;47.246;9.648;2022-10-31T05:50:18;5.80;99.90
15386;DHT22;7791;47.246;9.648;2022-10-31T05:52:44;5.70;99.90
15386;DHT22;7791;47.246;9.648;2022-10-31T05:55:09;5.70;99.90
15386;DHT22;7791;47.246;9.648;2022-10-31T05:57:36;5.70;99.90
15386;DHT22;7791;47.246;9.648;2022-10-31T06:00:02;5.80;99.90
15386;DHT22;7791;47.246;9.648;2022-10-31T06:02:28;5.80;99.90
15386;DHT22;7791;47.246;9.648;2022-10-31T06:04:55;5.80;99.90
15386;DHT22;7791;47.246;9.648;2022-10-31T06:07:22;5.80;99.90
15386;DHT22;7791;47.246;9.648;2022-10-31T06:09:48;5.80;99.90
15386;DHT22;7791;47.246;9.648;2022-10-31T06:12:13;5.90;99.90
15386;DHT22;7791;47.246;9.648;2022-10-31T06:14:39;5.90;99.90
15386;DHT22;7791;47.246;9.648;2022-10-31T06:17:05;5.90;99.90
15386;DHT22;7791;47.246;9.648;2022-10-31T06:19:31;6.00;99.90
15386;DHT22;7791;47.246;9.648;2022-10-31T06:21:58;6.00;99.90
15386;DHT22;7791;47.246;9.648;2022-10-31T06:24:25;6.00;99.90
15386;DHT22;7791;47.246;9.648;2022-10-31T06:26:51;6.00;99.90
15386;DHT22;7791;47.246;9.648;2022-10-31T06:29:17;5.90;99.90
15386;DHT22;7791;47.246;9.648;2022-10-31T06:31:42;6.00;99.90
15386;DHT22;7791;47.246;9.648;2022-10-31T06:34:08;5.90;99.90
15386;DHT22;7791;47.246;9.648;2022-10-31T06:36:34;6.00;99.90
15386;DHT22;7791;47.246;9.648;2022-10-31T06:39:00;6.00;99.90
15386;DHT22;7791;47.246;9.648;2022-10-31T06:41:27;6.10;99.90
15386;DHT22;7791;47.246;9.648;2022-10-31T06:43:53;6.20;99.90
15386;DHT22;7791;47.246;9.648;2022-10-31T06:46:19;6.30;99.90
15386;DHT22;7791;47.246;9.648;2022-10-31T06:48:45;6.30;99.90
15386;DHT22;7791;47.246;9.648;2022-10-31T06:51:11;6.20;99.90
15386;DHT22;7791;47.246;9.648;2022-10-31T06:53:36;6.30;99.90
15386;DHT22;7791;47.246;9.648;2022-10-31T06:56:03;6.40;99.90
15386;DHT22;7791;47.246;9.648;2022-10-31T06:58:30;6.50;99.90
15386;DHT22;7791;47.246;9.648;2022-10-31T07:00:59;6.60;99.90
15386;DHT22;7791;47.246;9.648;2022-10-31T07:03:24;6.70;99.90
15386;DHT22;7791;47.246;9.648;2022-10-31T07:05:51;6.80;99.90
15386;DHT22;7791;47.246;9.648;2022-10-31T07:08:17;6.80;99.90
15386;DHT22;7791;47.246;9.648;2022-10-31T07:10:50;6.90;99.90
15386;DHT22;7791;47.246;9.648;2022-10-31T07:13:15;7.00;99.90
15386;DHT22;7791;47.246;9.648;2022-10-31T07:15:43;7.10;99.90
15386;DHT22;7791;47.246;9.648;2022-10-31T07:18:11;7.20;99.90
15386;DHT22;7791;47.246;9.648;2022-10-31T07:20:37;7.30;99.90
15386;DHT22;7791;47.246;9.648;2022-10-31T07:23:03;7.70;99.90
15386;DHT22;7791;47.246;9.648;2022-10-31T07:25:29;8.80;99.90
15386;DHT22;7791;47.246;9.648;2022-10-31T07:27:55;9.70;99.90
15386;DHT22;7791;47.246;9.648;2022-10-31T07:30:21;10.60;99.90
15386;DHT22;7791;47.246;9.648;2022-10-31T07:32:49;10.70;99.90
15386;DHT22;7791;47.246;9.648;2022-10-31T07:35:17;11.10;99.90
15386;DHT22;7791;47.246;9.648;2022-10-31T07:37:43;11.70;99.90
15386;DHT22;7791;47.246;9.648;2022-10-31T07:40:10;12.60;99.90
15386;DHT22;7791;47.246;9.648;2022-10-31T07:42:36;13.30;99.90
15386;DHT22;7791;47.246;9.648;2022-10-31T07:45:04;13.70;99.90
15386;DHT22;7791;47.246;9.648;2022-10-31T07:47:38;14.50;99.90
15386;DHT22;7791;47.246;9.648;2022-10-31T07:50:06;15.50;99.90
15386;DHT22;7791;47.246;9.648;2022-10-31T07:52:32;16.00;99.90
15386;DHT22;7791;47.246;9.648;2022-10-31T07:54:57;16.60;99.90
15386;DHT22;7791;47.246;9.648;2022-10-31T07:57:23;16.70;99.90
15386;DHT22;7791;47.246;9.648;2022-10-31T07:59:49;17.60;99.90
15386;DHT22;7791;47.246;9.648;2022-10-31T08:02:15;18.20;99.90
15386;DHT22;7791;47.246;9.648;2022-10-31T08:04:41;18.80;99.90
15386;DHT22;7791;47.246;9.648;2022-10-31T08:07:09;18.00;99.90
15386;DHT22;7791;47.246;9.648;2022-10-31T08:09:35;18.20;99.90
15386;DHT22;7791;47.246;9.648;2022-10-31T08:12:01;17.40;99.90
15386;DHT22;7791;47.246;9.648;2022-10-31T08:14:27;17.00;99.90
15386;DHT22;7791;47.246;9.648;2022-10-31T08:16:56;16.30;99.90
15386;DHT22;7791;47.246;9.648;2022-10-31T08:19:22;15.00;99.90
15386;DHT22;7791;47.246;9.648;2022-10-31T08:21:50;15.70;99.90
15386;DHT22;7791;47.246;9.648;2022-10-31T08:24:18;16.40;99.90
15386;DHT22;7791;47.246;9.648;2022-10-31T08:26:44;17.20;99.90
15386;DHT22;7791;47.246;9.648;2022-10-31T08:29:09;16.80;99.90
15386;DHT22;7791;47.246;9.648;2022-10-31T08:31:35;17.60;99.90
15386;DHT22;7791;47.246;9.648;2022-10-31T08:34:01;18.00;99.90
15386;DHT22;7791;47.246;9.648;2022-10-31T08:36:27;18.40;99.90
15386;DHT22;7791;47.246;9.648;2022-10-31T08:38:55;18.80;99.90
15386;DHT22;7791;47.246;9.648;2022-10-31T08:41:23;19.20;99.90
15386;DHT22;7791;47.246;9.648;2022-10-31T08:43:49;19.90;99.90
15386;DHT22;7791;47.246;9.648;2022-10-31T08:46:15;20.60;99.90
15386;DHT22;7791;47.246;9.648;2022-10-31T08:48:41;21.30;99.90
15386;DHT22;7791;47.246;9.648;2022-10-31T08:51:09;21.60;99.90
15386;DHT22;7791;47.246;9.648;2022-10-31T08:53:36;22.40;99.90
15386;DHT22;7791;47.246;9.648;2022-10-31T08:56:02;23.30;99.90
15386;DHT22;7791;47.246;9.648;2022-10-31T08:58:29;23.70;99.90
15386;DHT22;7791;47.246;9.648;2022-10-31T09:00:55;23.40;99.90
15386;DHT22;7791;47.246;9.648;2022-10-31T09:03:26;23.90;99.90
15386;DHT22;7791;47.246;9.648;2022-10-31T09:05:55;24.10;99.90
15386;DHT22;7791;47.246;9.648;2022-10-31T09:08:22;24.50;99.90
15386;DHT22;7791;47.246;9.648;2022-10-31T09:10:48;25.20;99.40
15386;DHT22;7791;47.246;9.648;2022-10-31T09:13:15;26.00;98.70
15386;DHT22;7791;47.246;9.648;2022-10-31T09:15:44;26.80;97.10
15386;DHT22;7791;47.246;9.648;2022-10-31T09:18:11;27.40;96.20
15386;DHT22;7791;47.246;9.648;2022-10-31T09:20:38;27.80;94.90
15386;DHT22;7791;47.246;9.648;2022-10-31T09:23:06;28.10;94.00
15386;DHT22;7791;47.246;9.648;2022-10-31T09:25:33;28.20;93.20
15386;DHT22;7791;47.246;9.648;2022-10-31T09:28:01;28.20;93.70
15386;DHT22;7791;47.246;9.648;2022-10-31T09:30:29;28.00;91.90
15386;DHT22;7791;47.246;9.648;2022-10-31T09:32:57;27.30;93.00
15386;DHT22;7791;47.246;9.648;2022-10-31T09:35:23;26.40;92.10
15386;DHT22;7791;47.246;9.648;2022-10-31T09:37:53;25.20;96.40
15386;DHT22;7791;47.246;9.648;2022-10-31T09:40:19;24.80;96.20
15386;DHT22;7791;47.246;9.648;2022-10-31T09:42:53;23.30;98.30
15386;DHT22;7791;47.246;9.648;2022-10-31T09:45:25;22.30;99.90
15386;DHT22;7791;47.246;9.648;2022-10-31T09:48:06;22.30;99.90
15386;DHT22;7791;47.246;9.648;2022-10-31T09:50:41;22.50;99.90
15386;DHT22;7791;47.246;9.648;2022-10-31T09:53:14;21.90;99.90
15386;DHT22;7791;47.246;9.648;2022-10-31T09:55:44;21.60;99.90
15386;DHT22;7791;47.246;9.648;2022-10-31T09:58:15;20.80;99.90
15386;DHT22;7791;47.246;9.648;2022-10-31T10:00:42;20.50;99.90
15386;DHT22;7791;47.246;9.648;2022-10-31T10:03:20;20.90;99.90
15386;DHT22;7791;47.246;9.648;2022-10-31T10:05:53;20.90;99.90
15386;DHT22;7791;47.246;9.648;2022-10-31T10:08:22;21.30;99.90
15386;DHT22;7791;47.246;9.648;2022-10-31T10:10:52;20.90;99.90
15386;DHT22;7791;47.246;9.648;2022-10-31T10:13:36;20.80;99.90
15386;DHT22;7791;47.246;9.648;2022-10-31T10:16:27;21.70;99.90
15386;DHT22;7791;47.246;9.648;2022-10-31T10:19:06;21.80;99.90
15386;DHT22;7791;47.246;9.648;2022-10-31T10:21:39;22.20;99.90
15386;DHT22;7791;47.246;9.648;2022-10-31T10:24:21;21.80;99.90
15386;DHT22;7791;47.246;9.648;2022-10-31T10:26:56;21.60;99.90
15386;DHT22;7791;47.246;9.648;2022-10-31T10:29:33;21.00;99.90
15386;DHT22;7791;47.246;9.648;2022-10-31T10:32:05;21.00;99.90
15386;DHT22;7791;47.246;9.648;2022-10-31T10:34:39;20.30;99.90
15386;DHT22;7791;47.246;9.648;2022-10-31T10:37:17;20.20;99.90
15386;DHT22;7791;47.246;9.648;2022-10-31T10:39:47;20.80;99.90
15386;DHT22;7791;47.246;9.648;2022-10-31T10:42:15;20.60;99.90
15386;DHT22;7791;47.246;9.648;2022-10-31T10:44:45;20.80;99.90
15386;DHT22;7791;47.246;9.648;2022-10-31T10:47:12;20.60;99.90
15386;DHT22;7791;47.246;9.648;2022-10-31T10:49:45;20.70;99.90
15386;DHT22;7791;47.246;9.648;2022-10-31T10:52:20;21.00;99.90
15386;DHT22;7791;47.246;9.648;2022-10-31T10:55:00;20.60;99.90
15386;DHT22;7791;47.246;9.648;2022-10-31T10:57:44;19.80;99.90
15386;DHT22;7791;47.246;9.648;2022-10-31T11:00:23;19.80;99.90
15386;DHT22;7791;47.246;9.648;2022-10-31T11:02:50;19.90;99.90
15386;DHT22;7791;47.246;9.648;2022-10-31T11:05:24;19.50;99.90
15386;DHT22;7791;47.246;9.648;2022-10-31T11:07:50;19.50;99.90
15386;DHT22;7791;47.246;9.648;2022-10-31T11:10:17;19.50;99.90
15386;DHT22;7791;47.246;9.648;2022-10-31T11:12:56;19.20;99.90
15386;DHT22;7791;47.246;9.648;2022-10-31T11:15:24;18.20;99.90
15386;DHT22;7791;47.246;9.648;2022-10-31T11:17:53;16.90;99.90
15386;DHT22;7791;47.246;9.648;2022-10-31T11:20:27;16.30;99.90
15386;DHT22;7791;47.246;9.648;2022-10-31T11:23:03;16.00;99.90
15386;DHT22;7791;47.246;9.648;2022-10-31T11:25:29;15.80;99.90
15386;DHT22;7791;47.246;9.648;2022-10-31T11:28:00;15.40;99.90
15386;DHT22;7791;47.246;9.648;2022-10-31T11:30:26;15.10;99.90
15386;DHT22;7791;47.246;9.648;2022-10-31T11:32:52;14.90;99.90
15386;DHT22;7791;47.246;9.648;2022-10-31T11:35:20;14.50;99.90
15386;DHT22;7791;47.246;9.648;2022-10-31T11:37:50;14.30;99.90
15386;DHT22;7791;47.246;9.648;2022-10-31T11:40:20;14.40;99.90
15386;DHT22;7791;47.246;9.648;2022-10-31T11:42:47;14.40;99.90
15386;DHT22;7791;47.246;9.648;2022-10-31T11:45:18;14.50;99.90
15386;DHT22;7791;47.246;9.648;2022-10-31T11:47:54;14.40;99.90
15386;DHT22;7791;47.246;9.648;2022-10-31T11:50:23;14.40;99.90
15386;DHT22;7791;47.246;9.648;2022-10-31T11:53:03;14.50;99.90
15386;DHT22;7791;47.246;9.648;2022-10-31T11:55:32;14.50;99.90
15386;DHT22;7791;47.246;9.648;2022-10-31T11:57:59;14.90;99.90
15386;DHT22;7791;47.246;9.648;2022-10-31T12:00:27;15.00;99.90
15386;DHT22;7791;47.246;9.648;2022-10-31T12:03:06;15.20;99.90
15386;DHT22;7791;47.246;9.648;2022-10-31T12:05:37;15.30;99.90
15386;DHT22;7791;47.246;9.648;2022-10-31T12:08:07;15.30;99.90
15386;DHT22;7791;47.246;9.648;2022-10-31T12:10:40;15.60;99.90
15386;DHT22;7791;47.246;9.648;2022-10-31T12:13:24;15.50;99.90
15386;DHT22;7791;47.246;9.648;2022-10-31T12:15:58;15.40;99.90
15386;DHT22;7791;47.246;9.648;2022-10-31T12:18:41;15.30;99.90
15386;DHT22;7791;47.246;9.648;2022-10-31T12:21:25;15.40;99.90
15386;DHT22;7791;47.246;9.648;2022-10-31T12:24:00;15.40;99.90
15386;DHT22;7791;47.246;9.648;2022-10-31T12:26:34;15.60;99.90
15386;DHT22;7791;47.246;9.648;2022-10-31T12:29:26;15.50;99.90
15386;DHT22;7791;47.246;9.648;2022-10-31T12:32:05;15.30;99.90
15386;DHT22;7791;47.246;9.648;2022-10-31T12:35:04;15.10;99.90
15386;DHT22;7791;47.246;9.648;2022-10-31T12:37:43;15.00;99.90
15386;DHT22;7791;47.246;9.648;2022-10-31T12:40:26;14.70;99.90
15386;DHT22;7791;47.246;9.648;2022-10-31T12:43:06;14.80;99.90
15386;DHT22;7791;47.246;9.648;2022-10-31T12:45:46;14.90;99.90
15386;DHT22;7791;47.246;9.648;2022-10-31T12:51:08;15.20;99.90
15386;DHT22;7791;47.246;9.648;2022-10-31T12:53:49;15.20;99.90
15386;DHT22;7791;47.246;9.648;2022-10-31T12:56:29;15.50;99.90
15386;DHT22;7791;47.246;9.648;2022-10-31T12:59:00;15.60;99.90
15386;DHT22;7791;47.246;9.648;2022-10-31T13:01:30;15.80;99.90
15386;DHT22;7791;47.246;9.648;2022-10-31T13:04:01;15.50;99.90
15386;DHT22;7791;47.246;9.648;2022-10-31T13:06:32;15.40;99.90
15386;DHT22;7791;47.246;9.648;2022-10-31T13:09:15;15.60;99.90
15386;DHT22;7791;47.246;9.648;2022-10-31T13:11:45;15.80;99.90
15386;DHT22;7791;47.246;9.648;2022-10-31T13:14:19;16.20;99.90
15386;DHT22;7791;47.246;9.648;2022-10-31T13:16:48;16.20;99.90
15386;DHT22;7791;47.246;9.648;2022-10-31T13:19:17;16.40;99.90
15386;DHT22;7791;47.246;9.648;2022-10-31T13:21:53;17.00;99.90
15386;DHT22;7791;47.246;9.648;2022-10-31T13:24:33;17.00;99.90
15386;DHT22;7791;47.246;9.648;2022-10-31T13:27:03;17.20;99.90
15386;DHT22;7791;47.246;9.648;2022-10-31T13:29:39;17.40;99.90
15386;DHT22;7791;47.246;9.648;2022-10-31T13:32:10;17.70;99.90
15386;DHT22;7791;47.246;9.648;2022-10-31T13:34:39;17.80;99.90
15386;DHT22;7791;47.246;9.648;2022-10-31T13:37:12;18.10;99.90
15386;DHT22;7791;47.246;9.648;2022-10-31T13:40:04;17.70;99.90
15386;DHT22;7791;47.246;9.648;2022-10-31T13:42:51;17.80;99.90
15386;DHT22;7791;47.246;9.648;2022-10-31T13:45:21;18.20;99.90
15386;DHT22;7791;47.246;9.648;2022-10-31T13:48:17;18.50;99.90
15386;DHT22;7791;47.246;9.648;2022-10-31T13:50:56;17.90;99.90
15386;DHT22;7791;47.246;9.648;2022-10-31T13:53:34;17.80;99.90
15386;DHT22;7791;47.246;9.648;2022-10-31T13:56:04;18.20;99.90
15386;DHT22;7791;47.246;9.648;2022-10-31T13:58:38;18.20;99.90
15386;DHT22;7791;47.246;9.648;2022-10-31T14:01:14;18.30;99.90
15386;DHT22;7791;47.246;9.648;2022-10-31T14:03:43;19.10;99.90
15386;DHT22;7791;47.246;9.648;2022-10-31T14:06:10;19.30;99.90
15386;DHT22;7791;47.246;9.648;2022-10-31T14:08:49;19.10;99.90
15386;DHT22;7791;47.246;9.648;2022-10-31T14:11:24;19.30;99.90
15386;DHT22;7791;47.246;9.648;2022-10-31T14:13:52;19.20;99.90
15386;DHT22;7791;47.246;9.648;2022-10-31T14:16:23;19.10;99.90
15386;DHT22;7791;47.246;9.648;2022-10-31T14:18:57;18.90;99.90
15386;DHT22;7791;47.246;9.648;2022-10-31T14:21:29;19.10;99.90
15386;DHT22;7791;47.246;9.648;2022-10-31T14:23:55;19.50;99.90
15386;DHT22;7791;47.246;9.648;2022-10-31T14:26:33;19.10;99.90
15386;DHT22;7791;47.246;9.648;2022-10-31T14:31:52;18.70;99.90
15386;DHT22;7791;47.246;9.648;2022-10-31T14:34:27;18.80;99.90
15386;DHT22;7791;47.246;9.648;2022-10-31T14:43:07;17.80;99.90
15386;DHT22;7791;47.246;9.648;2022-10-31T14:45:47;17.50;99.90
15386;DHT22;7791;47.246;9.648;2022-10-31T14:48:31;17.00;99.90
15386;DHT22;7791;47.246;9.648;2022-10-31T14:51:01;16.80;99.90
15386;DHT22;7791;47.246;9.648;2022-10-31T14:53:31;16.80;99.90
15386;DHT22;7791;47.246;9.648;2022-10-31T14:56:20;16.60;99.90
15386;DHT22;7791;47.246;9.648;2022-10-31T14:58:47;15.90;99.90
15386;DHT22;7791;47.246;9.648;2022-10-31T15:01:24;15.40;99.90
15386;DHT22;7791;47.246;9.648;2022-10-31T15:03:51;15.20;99.90
15386;DHT22;7791;47.246;9.648;2022-10-31T15:06:19;15.10;99.90
15386;DHT22;7791;47.246;9.648;2022-10-31T15:08:48;15.00;99.90
15386;DHT22;7791;47.246;9.648;2022-10-31T15:11:18;14.80;99.90
15386;DHT22;7791;47.246;9.648;2022-10-31T15:13:49;14.50;99.90
15386;DHT22;7791;47.246;9.648;2022-10-31T15:16:24;14.30;99.90
15386;DHT22;7791;47.246;9.648;2022-10-31T15:18:54;14.30;99.90
15386;DHT22;7791;47.246;9.648;2022-10-31T15:21:25;14.20;99.90
15386;DHT22;7791;47.246;9.648;2022-10-31T15:24:00;14.20;99.90
15386;DHT22;7791;47.246;9.648;2022-10-31T15:26:35;14.20;99.90
15386;DHT22;7791;47.246;9.648;2022-10-31T15:29:05;14.00;99.90
15386;DHT22;7791;47.246;9.648;2022-10-31T15:31:33;13.90;99.90
15386;DHT22;7791;47.246;9.648;2022-10-31T15:34:03;13.60;99.90
15386;DHT22;7791;47.246;9.648;2022-10-31T15:46:02;13.20;99.90
15386;DHT22;7791;47.246;9.648;2022-10-31T15:48:33;13.10;99.90
15386;DHT22;7791;47.246;9.648;2022-10-31T15:51:02;13.10;99.90
15386;DHT22;7791;47.246;9.648;2022-10-31T15:53:32;12.90;99.90
15386;DHT22;7791;47.246;9.648;2022-10-31T15:56:04;12.80;99.90
15386;DHT22;7791;47.246;9.648;2022-10-31T15:58:44;12.70;99.90
15386;DHT22;7791;47.246;9.648;2022-10-31T16:01:21;12.60;99.90
15386;DHT22;7791;47.246;9.648;2022-10-31T16:04:19;12.40;99.90
15386;DHT22;7791;47.246;9.648;2022-10-31T16:06:58;12.30;99.90
15386;DHT22;7791;47.246;9.648;2022-10-31T16:09:24;12.00;99.90
15386;DHT22;7791;47.246;9.648;2022-10-31T16:11:51;12.00;99.90
15386;DHT22;7791;47.246;9.648;2022-10-31T16:14:20;12.00;99.90
15386;DHT22;7791;47.246;9.648;2022-10-31T16:16:55;12.00;99.90
15386;DHT22;7791;47.246;9.648;2022-10-31T16:19:28;12.00;99.90
15386;DHT22;7791;47.246;9.648;2022-10-31T16:22:01;11.90;99.90
15386;DHT22;7791;47.246;9.648;2022-10-31T16:24:31;11.80;99.90
15386;DHT22;7791;47.246;9.648;2022-10-31T16:27:04;11.80;99.90
15386;DHT22;7791;47.246;9.648;2022-10-31T16:29:34;11.70;99.90
15386;DHT22;7791;47.246;9.648;2022-10-31T16:32:02;11.70;99.90
15386;DHT22;7791;47.246;9.648;2022-10-31T16:34:32;11.40;99.90